createdAt,value
2019-04-14T00:00:27.267Z,102063.03
2019-04-14T00:03:08.661Z,102057.65
2019-04-14T00:05:38.608Z,102061.70
2019-04-14T00:08:09.108Z,102054.81
2019-04-14T00:10:38.486Z,102056.64
2019-04-14T00:13:08.979Z,102054.81
2019-04-14T00:15:42.700Z,102054.39
2019-04-14T00:18:09.714Z,102052.58
2019-04-14T00:20:39.103Z,102049.87
2019-04-14T00:23:08.822Z,102051.75
2019-04-14T00:25:39.081Z,102046.42
2019-04-14T00:28:09.495Z,102047.39
2019-04-14T00:30:40.426Z,102050.66
2019-04-14T00:33:28.108Z,102049.40
2019-04-14T00:36:15.451Z,102048.54
2019-04-14T00:38:47.807Z,102050.30
2019-04-14T00:41:39.425Z,102049.64
2019-04-14T00:44:07.996Z,102049.64
2019-04-14T00:46:51.710Z,102047.23
2019-04-14T00:49:22.148Z,102049.23
2019-04-14T00:51:52.713Z,102049.01
2019-04-14T00:54:22.303Z,102052.69
2019-04-14T00:56:52.106Z,102053.17
2019-04-14T00:59:22.262Z,102054.98
2019-04-14T01:01:52.500Z,102059.09
2019-04-14T01:04:22.954Z,102051.61
2019-04-14T01:06:53.350Z,102056.55
2019-04-14T01:09:23.976Z,102053.00
2019-04-14T01:11:53.404Z,102060.98
2019-04-14T01:14:23.298Z,102061.88
2019-04-14T01:16:53.839Z,102057.53
2019-04-14T01:19:24.442Z,102061.15
2019-04-14T01:21:54.599Z,102062.53
2019-04-14T01:24:24.988Z,102055.53
2019-04-14T01:26:55.004Z,102055.53
2019-04-14T01:29:25.420Z,102062.23
2019-04-14T01:31:55.771Z,102064.41
2019-04-14T01:34:26.011Z,102057.81
2019-04-14T01:36:56.141Z,102071.13
2019-04-14T01:39:26.528Z,102066.76
2019-04-14T01:41:56.514Z,102063.30
2019-04-14T01:44:28.435Z,102072.26
2019-04-14T01:46:58.796Z,102077.20
2019-04-14T01:49:29.143Z,102075.50
2019-04-14T01:52:10.308Z,102076.95
2019-04-14T01:54:41.334Z,102085.88
2019-04-14T01:57:24.343Z,102085.09
2019-04-14T01:59:54.663Z,102086.54
2019-04-14T02:02:27.019Z,102093.23
2019-04-14T02:04:57.697Z,102090.64
2019-04-14T02:07:27.695Z,102099.13
2019-04-14T02:09:59.411Z,102093.83
2019-04-14T02:12:30.199Z,102096.11
2019-04-14T02:15:00.492Z,102092.65
2019-04-14T02:17:30.737Z,102095.36
2019-04-14T02:20:01.179Z,102094.09
2019-04-14T02:22:31.265Z,102094.14
2019-04-14T02:25:01.501Z,102099.07
2019-04-14T02:27:31.717Z,102097.84
2019-04-14T02:30:03.550Z,102093.45
2019-04-14T02:33:07.310Z,102099.29
2019-04-14T02:35:37.283Z,102102.04
2019-04-14T02:38:18.203Z,102110.11
2019-04-14T02:43:14.539Z,102108.09
2019-04-14T02:45:46.723Z,102107.80
2019-04-14T02:48:35.400Z,102101.25
2019-04-14T02:50:42.177Z,102099.12
2019-04-14T02:53:18.081Z,102097.89
2019-04-14T02:55:49.485Z,102097.47
2019-04-14T02:58:24.634Z,102095.80
2019-04-14T03:00:55.046Z,102095.43
2019-04-14T03:03:24.082Z,102091.15
2019-04-14T03:05:53.705Z,102098.31
2019-04-14T03:08:26.348Z,102093.48
2019-04-14T03:10:56.002Z,102099.30
2019-04-14T03:13:29.229Z,102096.22
2019-04-14T03:16:04.087Z,102097.16
2019-04-14T03:18:47.254Z,102098.96
2019-04-14T03:21:26.267Z,102103.42
2019-04-14T03:24:12.677Z,102101.67
2019-04-14T03:26:47.423Z,102098.67
2019-04-14T03:29:32.404Z,102099.14
2019-04-14T03:32:11.462Z,102100.51
2019-04-14T03:34:42.982Z,102102.35
2019-04-14T03:44:41.475Z,102108.70
2019-04-14T03:47:13.515Z,102106.52
2019-04-14T03:49:52.435Z,102107.49
2019-04-14T03:52:34.964Z,102110.19
2019-04-14T03:54:34.987Z,102110.66
2019-04-14T03:56:51.578Z,102104.96
2019-04-14T03:59:21.881Z,102107.63
2019-04-14T04:01:52.244Z,102112.50
2019-04-14T04:04:22.769Z,102107.20
2019-04-14T04:06:53.161Z,102109.45
2019-04-14T04:09:25.630Z,102116.09
2019-04-14T04:11:56.359Z,102113.05
2019-04-14T04:14:27.003Z,102119.68
2019-04-14T04:16:59.509Z,102122.38
2019-04-14T04:19:49.239Z,102125.53
2019-04-14T04:22:24.448Z,102133.92
2019-04-14T04:25:01.264Z,102129.09
2019-04-14T04:27:48.390Z,102124.25
2019-04-14T04:30:23.153Z,102124.72
2019-04-14T04:32:54.188Z,102127.84
2019-04-14T04:35:43.674Z,102131.86
2019-04-14T04:38:15.881Z,102130.10
2019-04-14T04:40:46.160Z,102123.98
2019-04-14T04:43:16.842Z,102126.62
2019-04-14T04:45:47.365Z,102132.44
2019-04-14T04:48:19.667Z,102139.07
2019-04-14T04:50:49.889Z,102147.89
2019-04-14T04:53:22.367Z,102143.01
2019-04-14T04:55:52.487Z,102145.66
2019-04-14T04:58:22.180Z,102152.26
2019-04-14T05:00:53.963Z,102149.17
2019-04-14T05:03:23.334Z,102147.34
2019-04-14T05:06:20.163Z,102144.69
2019-04-14T05:08:52.349Z,102145.98
2019-04-14T05:11:29.531Z,102148.59
2019-04-14T05:14:00.864Z,102149.45
2019-04-14T05:16:30.296Z,102157.80
2019-04-14T05:19:12.017Z,102157.30
2019-04-14T05:21:32.063Z,102154.56
2019-04-14T05:24:02.749Z,102152.73
2019-04-14T05:26:33.109Z,102149.56
2019-04-14T05:29:03.577Z,102149.02
2019-04-14T05:31:33.654Z,102156.03
2019-04-14T05:34:04.311Z,102150.64
2019-04-14T05:36:34.926Z,102155.36
2019-04-14T05:39:06.813Z,102159.30
2019-04-14T05:41:37.571Z,102164.48
2019-04-14T05:44:07.919Z,102160.80
2019-04-14T05:46:38.147Z,102159.77
2019-04-14T05:49:08.576Z,102162.34
2019-04-14T05:51:37.995Z,102162.67
2019-04-14T05:54:07.864Z,102168.23
2019-04-14T05:56:39.114Z,102169.38
2019-04-14T05:59:08.893Z,102176.27
2019-04-14T06:01:39.216Z,102175.66
2019-04-14T06:04:09.761Z,102181.16
2019-04-14T06:06:39.137Z,102180.87
2019-04-14T06:09:08.894Z,102177.95
2019-04-14T06:11:39.535Z,102168.86
2019-04-14T06:14:09.005Z,102174.78
2019-04-14T06:16:39.671Z,102175.05
2019-04-14T06:19:09.055Z,102165.84
2019-04-14T06:21:39.558Z,102169.94
2019-04-14T06:24:08.929Z,102171.81
2019-04-14T06:26:39.068Z,102178.08
2019-04-14T06:29:09.577Z,102179.47
2019-04-14T06:31:49.432Z,102184.09
2019-04-14T06:34:30.395Z,102177.55
2019-04-14T06:39:54.862Z,102182.20
2019-04-14T06:42:24.227Z,102182.72
2019-04-14T06:44:55.247Z,102183.55
2019-04-14T06:47:24.935Z,102171.75
2019-04-14T06:49:54.653Z,102187.71
2019-04-14T06:52:25.515Z,102182.04
2019-04-14T06:54:54.943Z,102178.11
2019-04-14T06:57:25.017Z,102172.41
2019-04-14T06:59:54.692Z,102180.92
2019-04-14T07:02:24.082Z,102182.89
2019-04-14T07:04:53.762Z,102181.82
2019-04-14T07:07:23.160Z,102177.10
2019-04-14T07:09:53.002Z,102174.51
2019-04-14T07:12:22.674Z,102177.70
2019-04-14T07:14:52.054Z,102177.33
2019-04-14T07:17:21.437Z,102170.80
2019-04-14T07:20:01.298Z,102174.81
2019-04-14T07:22:22.560Z,102175.45
2019-04-14T07:24:51.972Z,102175.95
2019-04-14T07:27:21.356Z,102179.23
2019-04-14T07:30:07.688Z,102172.71
2019-04-14T07:32:38.873Z,102182.39
2019-04-14T07:35:25.038Z,102179.91
2019-04-14T07:37:58.994Z,102182.30
2019-04-14T07:40:33.516Z,102185.80
2019-04-14T07:43:10.185Z,102184.91
2019-04-14T07:45:41.493Z,102182.75
2019-04-14T07:48:12.655Z,102183.39
2019-04-14T07:50:56.070Z,102178.70
2019-04-14T07:53:28.871Z,102182.19
2019-04-14T07:56:15.103Z,102184.86
2019-04-14T07:58:55.412Z,102174.03
2019-04-14T08:01:29.872Z,102172.43
2019-04-14T08:04:03.593Z,102174.63
2019-04-14T08:06:33.430Z,102180.25
2019-04-14T08:09:03.015Z,102180.00
2019-04-14T08:11:34.096Z,102183.55
2019-04-14T08:14:03.482Z,102178.83
2019-04-14T08:16:33.168Z,102183.47
2019-04-14T08:19:03.200Z,102183.47
2019-04-14T08:21:32.885Z,102193.63
2019-04-14T08:24:02.266Z,102184.30
2019-04-14T08:26:32.892Z,102176.53
2019-04-14T08:29:02.250Z,102182.01
2019-04-14T08:31:35.625Z,102181.11
2019-04-14T08:34:05.064Z,102173.80
2019-04-14T08:36:34.451Z,102173.80
2019-04-14T08:39:05.411Z,102182.24
2019-04-14T08:41:36.935Z,102182.24
2019-04-14T08:44:07.922Z,102179.78
2019-04-14T08:46:41.913Z,102182.33
2019-04-14T08:49:18.737Z,102176.66
2019-04-14T08:52:06.390Z,102178.46
2019-04-14T08:54:37.703Z,102175.82
2019-04-14T08:57:25.210Z,102177.77
2019-04-14T08:59:58.970Z,102171.91
2019-04-14T09:02:30.294Z,102173.73
2019-04-14T09:05:13.524Z,102172.43
2019-04-14T09:07:48.040Z,102171.06
2019-04-14T09:10:19.059Z,102175.95
2019-04-14T09:12:52.568Z,102172.13
2019-04-14T09:15:22.234Z,102170.92
2019-04-14T09:17:51.436Z,102172.25
2019-04-14T09:20:21.349Z,102171.30
2019-04-14T09:22:50.733Z,102164.75
2019-04-14T09:25:20.407Z,102168.63
2019-04-14T09:27:50.044Z,102172.30
2019-04-14T09:30:19.640Z,102167.55
2019-04-14T09:32:49.092Z,102159.48
2019-04-14T09:35:19.446Z,102167.27
2019-04-14T09:37:50.091Z,102166.19
2019-04-14T09:40:19.664Z,102162.91
2019-04-14T09:42:49.241Z,102156.98
2019-04-14T09:45:19.539Z,102161.01
2019-04-14T09:47:49.293Z,102162.92
2019-04-14T09:50:19.635Z,102164.02
2019-04-14T09:52:49.315Z,102159.17
2019-04-14T09:55:19.585Z,102159.09
2019-04-14T09:57:49.194Z,102162.34
2019-04-14T10:00:19.580Z,102158.38
2019-04-14T10:02:49.211Z,102161.55
2019-04-14T10:05:19.488Z,102154.26
2019-04-14T10:07:49.221Z,102170.51
2019-04-14T10:10:19.542Z,102167.34
2019-04-14T10:12:49.540Z,102164.91
2019-04-14T10:15:19.732Z,102170.06
2019-04-14T10:17:49.296Z,102168.41
2019-04-14T10:20:20.548Z,102165.98
2019-04-14T10:22:52.381Z,102154.89
2019-04-14T10:25:21.747Z,102154.89
2019-04-14T10:27:52.234Z,102166.38
2019-04-14T10:30:21.618Z,102164.27
2019-04-14T10:32:51.619Z,102165.83
2019-04-14T10:35:21.475Z,102163.66
2019-04-14T10:37:51.480Z,102165.39
2019-04-14T10:40:21.426Z,102158.23
2019-04-14T10:42:50.797Z,102163.38
2019-04-14T10:45:20.489Z,102156.26
2019-04-14T10:47:50.156Z,102160.14
2019-04-14T10:50:30.289Z,102169.23
2019-04-14T10:52:50.758Z,102166.02
2019-04-14T10:55:20.455Z,102159.65
2019-04-14T10:57:50.400Z,102164.06
2019-04-14T11:00:19.880Z,102163.56
2019-04-14T11:02:49.396Z,102162.58
2019-04-14T11:05:19.602Z,102162.77
2019-04-14T11:07:49.536Z,102157.86
2019-04-14T11:10:19.654Z,102159.03
2019-04-14T11:12:49.338Z,102155.55
2019-04-14T11:15:20.068Z,102155.83
2019-04-14T11:17:49.442Z,102157.85
2019-04-14T11:20:19.644Z,102161.12
2019-04-14T11:22:49.657Z,102161.97
2019-04-14T11:25:19.720Z,102155.77
2019-04-14T11:27:50.414Z,102162.78
2019-04-14T11:30:21.496Z,102157.76
2019-04-14T11:33:07.504Z,102162.62
2019-04-14T11:35:44.359Z,102157.56
2019-04-14T11:38:15.372Z,102167.22
2019-04-14T11:40:55.199Z,102164.09
2019-04-14T11:43:24.855Z,102170.27
2019-04-14T11:45:54.906Z,102164.69
2019-04-14T11:48:24.637Z,102163.66
2019-04-14T11:50:54.349Z,102165.09
2019-04-14T11:53:24.252Z,102168.34
2019-04-14T11:55:53.621Z,102165.48
2019-04-14T11:58:23.020Z,102165.79
2019-04-14T12:01:11.998Z,102166.90
2019-04-14T12:03:49.416Z,102170.66
2019-04-14T12:06:21.436Z,102169.43
2019-04-14T12:08:52.448Z,102171.88
2019-04-14T12:11:21.980Z,102169.13
2019-04-14T12:13:51.421Z,102170.47
2019-04-14T12:16:21.112Z,102170.57
2019-04-14T12:18:50.486Z,102176.86
2019-04-14T12:21:19.900Z,102178.61
2019-04-14T12:23:49.401Z,102173.36
2019-04-14T12:26:19.918Z,102180.86
2019-04-14T12:28:49.503Z,102175.42
2019-04-14T12:31:21.833Z,102175.42
2019-04-14T12:33:51.555Z,102177.27
2019-04-14T12:36:21.509Z,102181.55
2019-04-14T12:38:52.108Z,102182.70
2019-04-14T12:41:39.754Z,102190.89
2019-04-14T12:44:27.486Z,102195.42
2019-04-14T12:47:01.270Z,102191.88
2019-04-14T12:49:44.294Z,102190.64
2019-04-14T12:52:21.393Z,102188.90
2019-04-14T12:54:49.767Z,102196.70
2019-04-14T12:57:36.408Z,102190.77
2019-04-14T13:00:08.455Z,102188.14
2019-04-14T13:02:39.458Z,102195.87
2019-04-14T13:05:09.863Z,102197.48
2019-04-14T13:07:39.553Z,102192.43
2019-04-14T13:10:09.100Z,102193.16
2019-04-14T13:12:38.543Z,102197.28
2019-04-14T13:15:07.946Z,102206.61
2019-04-14T13:17:37.610Z,102199.92
2019-04-14T13:20:08.155Z,102203.02
2019-04-14T13:22:37.819Z,102206.66
2019-04-14T13:25:08.156Z,102206.66
2019-04-14T13:27:37.872Z,102206.90
2019-04-14T13:30:10.070Z,102204.20
2019-04-14T13:32:39.530Z,102196.83
2019-04-14T13:35:08.990Z,102211.03
2019-04-14T13:37:38.831Z,102206.62
2019-04-14T13:40:08.552Z,102210.38
2019-04-14T13:42:37.918Z,102212.34
2019-04-14T13:45:08.037Z,102207.84
2019-04-14T13:47:37.537Z,102207.84
2019-04-14T13:50:06.999Z,102208.45
2019-04-14T13:52:46.685Z,102202.44
2019-04-14T13:55:09.174Z,102194.68
2019-04-14T13:57:38.564Z,102194.68
2019-04-14T14:00:10.980Z,102202.61
2019-04-14T14:02:41.023Z,102202.61
2019-04-14T14:05:10.795Z,102203.06
2019-04-14T14:07:40.241Z,102203.06
2019-04-14T14:10:10.481Z,102212.66
2019-04-14T14:12:58.015Z,102204.97
2019-04-14T14:15:41.342Z,102215.61
2019-04-14T14:18:28.466Z,102209.11
2019-04-14T14:21:11.389Z,102209.11
2019-04-14T14:23:58.456Z,102206.02
2019-04-14T14:26:35.430Z,102205.17
2019-04-14T14:29:05.322Z,102202.30
2019-04-14T14:31:35.040Z,102208.61
2019-04-14T14:34:04.828Z,102206.58
2019-04-14T14:36:34.271Z,102214.77
2019-04-14T14:39:06.026Z,102211.25
2019-04-14T14:41:36.099Z,102217.13
2019-04-14T14:44:06.131Z,102210.45
2019-04-14T14:46:46.080Z,102215.97
2019-04-14T14:49:33.491Z,102207.22
2019-04-14T14:52:10.051Z,102210.31
2019-04-14T14:54:40.032Z,102210.31
2019-04-14T14:57:09.995Z,102210.00
2019-04-14T14:59:39.375Z,102210.33
2019-04-14T15:02:08.909Z,102211.03
2019-04-14T15:04:38.320Z,102216.27
2019-04-14T15:07:07.944Z,102209.95
2019-04-14T15:09:37.607Z,102207.13
2019-04-14T15:12:07.213Z,102217.45
2019-04-14T15:14:37.204Z,102206.69
2019-04-14T15:17:08.398Z,102208.78
2019-04-14T15:19:38.454Z,102209.64
2019-04-14T15:22:08.119Z,102198.27
2019-04-14T15:24:38.594Z,102202.30
2019-04-14T15:27:08.027Z,102196.69
2019-04-14T15:29:38.036Z,102209.53
2019-04-14T15:32:07.394Z,102207.14
2019-04-14T15:34:37.037Z,102204.34
2019-04-14T15:37:06.558Z,102208.58
2019-04-14T15:39:37.721Z,102207.69
2019-04-14T15:42:07.171Z,102212.00
2019-04-14T15:44:37.116Z,102211.20
2019-04-14T15:47:06.525Z,102208.75
2019-04-14T15:49:36.210Z,102209.16
2019-04-14T15:52:05.568Z,102214.86
2019-04-14T15:54:35.255Z,102209.28
2019-04-14T15:57:07.376Z,102208.84
2019-04-14T15:59:54.972Z,102208.55
2019-04-14T16:02:43.895Z,102213.23
2019-04-14T16:05:14.889Z,102212.17
2019-04-14T16:07:45.920Z,102210.55
2019-04-14T16:10:33.194Z,102212.70
2019-04-14T16:13:22.196Z,102215.19
2019-04-14T16:15:56.175Z,102218.02
2019-04-14T16:18:28.769Z,102220.30
2019-04-14T16:20:58.432Z,102220.91
2019-04-14T16:23:28.261Z,102225.86
2019-04-14T16:25:59.572Z,102224.27
2019-04-14T16:28:38.194Z,102221.09
2019-04-14T16:31:24.713Z,102228.94
2019-04-14T16:34:11.790Z,102222.62
2019-04-14T16:36:43.313Z,102217.38
2019-04-14T16:39:12.829Z,102217.38
2019-04-14T16:41:42.245Z,102217.17
2019-04-14T16:44:11.595Z,102219.19
2019-04-14T16:46:41.043Z,102220.79
2019-04-14T16:49:10.746Z,102220.79
2019-04-14T16:51:44.662Z,102228.42
2019-04-14T16:54:31.780Z,102228.77
2019-04-14T16:57:19.027Z,102228.77
2019-04-14T16:59:48.671Z,102237.80
2019-04-14T17:02:18.188Z,102232.48
2019-04-14T17:04:47.561Z,102232.48
2019-04-14T17:07:17.128Z,102251.05
2019-04-14T17:09:46.778Z,102251.05
2019-04-14T17:12:18.198Z,102249.67
2019-04-14T17:14:49.165Z,102250.45
2019-04-14T17:17:20.207Z,102253.62
2019-04-14T17:20:00.349Z,102258.91
2019-04-14T17:22:32.906Z,102253.95
2019-04-14T17:25:09.821Z,102264.27
2019-04-14T17:27:44.327Z,102264.27
2019-04-14T17:30:19.187Z,102265.88
2019-04-14T17:32:52.918Z,102270.17
2019-04-14T17:35:30.171Z,102270.23
2019-04-14T17:38:07.172Z,102270.23
2019-04-14T17:40:56.396Z,102282.62
2019-04-14T17:43:33.731Z,102279.36
2019-04-14T17:46:05.897Z,102288.70
2019-04-14T17:48:40.483Z,102292.58
2019-04-14T17:51:14.466Z,102293.91
2019-04-14T17:53:48.679Z,102302.51
2019-04-14T17:56:28.932Z,102300.79
2019-04-14T17:59:00.234Z,102303.54
2019-04-14T18:01:33.915Z,102306.47
2019-04-14T18:04:05.701Z,102307.39
2019-04-14T18:06:42.991Z,102308.63
2019-04-14T18:09:16.972Z,102308.05
2019-04-14T18:11:56.712Z,102313.40
2019-04-14T18:14:40.094Z,102315.49
2019-04-14T18:17:20.888Z,102313.08
2019-04-14T18:19:51.902Z,102319.61
2019-04-14T18:22:21.606Z,102323.93
2019-04-14T18:24:51.537Z,102324.61
2019-04-14T18:27:22.787Z,102331.45
2019-04-14T18:29:56.915Z,102330.80
2019-04-14T18:32:37.051Z,102330.80
2019-04-14T18:35:23.133Z,102336.92
2019-04-14T18:38:03.556Z,102341.69
2019-04-14T18:40:35.467Z,102344.30
2019-04-14T18:43:06.703Z,102341.63
2019-04-14T18:45:51.023Z,102350.55
2019-04-14T18:48:35.349Z,102342.52
2019-04-14T18:51:19.069Z,102350.48
2019-04-14T18:53:53.196Z,102349.55
2019-04-14T18:56:27.449Z,102351.65
2019-04-14T18:59:12.902Z,102351.65
2019-04-14T19:01:53.522Z,102356.90
2019-04-14T19:04:23.845Z,102360.51
2019-04-14T19:06:53.459Z,102356.19
2019-04-14T19:09:23.257Z,102357.48
2019-04-14T19:11:56.889Z,102350.65
2019-04-14T19:14:28.279Z,102357.27
2019-04-14T19:17:11.245Z,102347.03
2019-04-14T19:20:01.301Z,102347.03
2019-04-14T19:22:22.649Z,102348.30
2019-04-14T19:24:52.013Z,102349.38
2019-04-14T19:27:22.763Z,102353.47
2019-04-14T19:29:52.385Z,102355.77
2019-04-14T19:32:21.819Z,102358.59
2019-04-14T19:34:51.657Z,102362.20
2019-04-14T19:37:21.089Z,102361.79
2019-04-14T19:39:50.564Z,102361.45
2019-04-14T19:42:20.867Z,102361.55
2019-04-14T19:44:50.525Z,102363.23
2019-04-14T19:47:20.915Z,102357.36
2019-04-14T19:49:51.425Z,102358.25
2019-04-14T19:52:21.809Z,102361.79
2019-04-14T19:54:51.696Z,102357.28
2019-04-14T19:57:22.176Z,102360.52
2019-04-14T19:59:52.442Z,102368.59
2019-04-14T20:02:21.803Z,102358.77
2019-04-14T20:04:51.472Z,102363.13
2019-04-14T20:07:20.885Z,102359.04
2019-04-14T20:09:50.554Z,102360.62
2019-04-14T20:12:20.877Z,102360.62
2019-04-14T20:14:50.595Z,102354.34
2019-04-14T20:17:22.520Z,102366.29
2019-04-14T20:19:59.256Z,102364.98
2019-04-14T20:22:30.566Z,102365.05
2019-04-14T20:25:01.847Z,102367.63
2019-04-14T20:27:36.832Z,102364.47
2019-04-14T20:30:20.949Z,102367.91
2019-04-14T20:32:50.842Z,102364.30
2019-04-14T20:35:20.940Z,102366.49
2019-04-14T20:37:50.562Z,102365.64
2019-04-14T20:40:20.906Z,102365.64
2019-04-14T20:42:50.586Z,102365.64
2019-04-14T20:45:20.985Z,102365.64
2019-04-14T20:47:50.611Z,102366.08
2019-04-14T20:50:21.004Z,102361.13
2019-04-14T20:52:50.568Z,102358.18
2019-04-14T20:55:21.175Z,102359.59
2019-04-14T20:57:51.288Z,102361.48
2019-04-14T21:00:21.831Z,102361.55
2019-04-14T21:03:10.731Z,102362.63
2019-04-14T21:05:41.774Z,102369.35
2019-04-14T21:08:31.068Z,102369.08
2019-04-14T21:11:02.439Z,102368.66
2019-04-14T21:13:33.452Z,102376.81
2019-04-14T21:16:13.329Z,102379.63
2019-04-14T21:18:47.280Z,102377.52
2019-04-14T21:21:20.921Z,102385.49
2019-04-14T21:23:54.629Z,102380.07
2019-04-14T21:26:26.443Z,102385.77
2019-04-14T21:29:03.911Z,102385.33
2019-04-14T21:31:51.158Z,102387.01
2019-04-14T21:34:22.796Z,102390.55
2019-04-14T21:36:56.916Z,102399.89
2019-04-14T21:39:40.502Z,102393.19
2019-04-14T21:42:08.974Z,102394.88
2019-04-14T21:44:38.359Z,102397.08
2019-04-14T21:47:07.898Z,102401.98
2019-04-14T21:49:37.291Z,102399.31
2019-04-14T21:52:11.389Z,102396.22
2019-04-14T21:54:42.677Z,102402.40
2019-04-14T21:57:13.684Z,102405.94
2019-04-14T22:00:00.674Z,102404.60
2019-04-14T22:02:48.453Z,102397.45
2019-04-14T22:05:22.043Z,102398.80
2019-04-14T22:08:02.511Z,102403.26
2019-04-14T22:10:36.758Z,102402.81
2019-04-14T22:13:06.156Z,102401.98
2019-04-14T22:15:35.578Z,102406.87
2019-04-14T22:18:04.989Z,102412.70
2019-04-14T22:20:34.361Z,102413.56
2019-04-14T22:23:05.563Z,102418.51
2019-04-14T22:25:35.173Z,102417.65
2019-04-14T22:28:05.133Z,102413.56
2019-04-14T22:30:34.515Z,102414.49
2019-04-14T22:33:04.623Z,102421.19
2019-04-14T22:35:35.071Z,102421.19
2019-04-14T22:38:04.429Z,102420.33
2019-04-14T22:40:34.115Z,102420.27
2019-04-14T22:43:04.044Z,102417.65
2019-04-14T22:45:34.462Z,102416.24
2019-04-14T22:48:04.292Z,102420.16
2019-04-14T22:50:33.977Z,102420.06
2019-04-14T22:53:03.401Z,102421.33
2019-04-14T22:55:34.222Z,102419.92
2019-04-14T22:58:03.950Z,102424.77
2019-04-14T23:00:49.850Z,102411.84
2019-04-14T23:03:39.746Z,102411.84
2019-04-14T23:06:22.350Z,102415.22
2019-04-14T23:08:54.610Z,102418.72
2019-04-14T23:11:31.797Z,102416.90
2019-04-14T23:14:02.825Z,102420.06
2019-04-14T23:16:37.036Z,102419.65
2019-04-14T23:19:14.460Z,102420.09
2019-04-14T23:21:51.321Z,102404.60
2019-04-14T23:24:23.929Z,102404.60
2019-04-14T23:26:53.467Z,102417.42
2019-04-14T23:29:23.152Z,102414.73
2019-04-14T23:31:52.536Z,102419.17
2019-04-14T23:34:22.473Z,102418.24
2019-04-14T23:36:52.306Z,102409.75
2019-04-14T23:39:21.698Z,102405.32
2019-04-14T23:41:51.157Z,102411.47
2019-04-14T23:44:21.485Z,102404.77
2019-04-14T23:46:51.082Z,102399.41
2019-04-14T23:49:21.419Z,102398.55
2019-04-14T23:51:51.665Z,102394.60
2019-04-14T23:54:21.555Z,102395.56
2019-04-14T23:57:04.463Z,102395.56
2019-04-14T23:59:22.532Z,102394.77
